createdAt,value
2019-05-03T00:00:36.688Z,95.959473
2019-05-03T00:01:47.208Z,95.751953
2019-05-03T00:02:57.709Z,95.648193
2019-05-03T00:04:07.213Z,95.959473
2019-05-03T00:05:16.725Z,96.166992
2019-05-03T00:06:27.229Z,96.270752
2019-05-03T00:07:36.767Z,96.166992
2019-05-03T00:08:47.289Z,95.751953
2019-05-03T00:09:56.806Z,95.855713
2019-05-03T00:11:07.326Z,95.855713
2019-05-03T00:12:17.889Z,95.855713
2019-05-03T00:13:27.383Z,95.751953
2019-05-03T00:14:37.886Z,95.855713
2019-05-03T00:15:47.391Z,96.209717
2019-05-03T00:16:56.931Z,95.898438
2019-05-03T00:18:07.443Z,96.417236
2019-05-03T00:19:16.967Z,96.520996
2019-05-03T00:20:26.511Z,96.520996
2019-05-03T00:21:37.015Z,96.722412
2019-05-03T00:22:46.543Z,96.520996
2019-05-03T00:23:57.402Z,96.209717
2019-05-03T00:25:08.492Z,96.313477
2019-05-03T00:26:17.425Z,96.209717
2019-05-03T00:27:27.940Z,96.002197
2019-05-03T00:28:38.457Z,96.313477
2019-05-03T00:29:47.951Z,96.209717
2019-05-03T00:30:57.477Z,96.313477
2019-05-03T00:32:07.004Z,96.618652
2019-05-03T00:33:17.524Z,96.722412
2019-05-03T00:34:27.070Z,96.722412
2019-05-03T00:35:37.583Z,96.417236
2019-05-03T00:36:47.113Z,96.520996
2019-05-03T00:37:57.633Z,96.209717
2019-05-03T00:39:07.159Z,96.417236
2019-05-03T00:40:16.689Z,96.618652
2019-05-03T00:41:26.203Z,96.520996
2019-05-03T00:42:36.735Z,96.826172
2019-05-03T00:43:47.253Z,96.520996
2019-05-03T00:44:56.793Z,96.826172
2019-05-03T00:46:07.306Z,96.826172
2019-05-03T00:47:17.863Z,96.929932
2019-05-03T00:48:27.384Z,97.033691
2019-05-03T00:49:37.928Z,96.826172
2019-05-03T00:50:47.469Z,96.722412
2019-05-03T00:51:57.011Z,97.033691
2019-05-03T00:53:07.548Z,96.826172
2019-05-03T00:54:17.076Z,96.826172
2019-05-03T00:55:27.567Z,97.137451
2019-05-03T00:56:38.083Z,97.241211
2019-05-03T00:57:48.608Z,97.442627
2019-05-03T00:58:58.115Z,97.241211
2019-05-03T01:00:07.625Z,97.546387
2019-05-03T01:01:17.145Z,97.650146
2019-05-03T01:02:27.691Z,97.753906
2019-05-03T01:03:37.208Z,97.650146
2019-05-03T01:04:46.757Z,97.650146
2019-05-03T01:05:57.294Z,97.753906
2019-05-03T01:07:06.826Z,97.857666
2019-05-03T01:08:16.356Z,97.650146
2019-05-03T01:09:26.856Z,97.650146
2019-05-03T01:10:36.401Z,97.650146
2019-05-03T01:11:46.938Z,97.857666
2019-05-03T01:12:57.481Z,98.059082
2019-05-03T01:14:07.008Z,98.266602
2019-05-03T01:15:16.522Z,98.266602
2019-05-03T01:16:26.034Z,98.370361
2019-05-03T01:17:36.570Z,98.370361
2019-05-03T01:18:47.066Z,98.370361
2019-05-03T01:19:57.577Z,98.370361
2019-05-03T01:21:08.104Z,98.266602
2019-05-03T01:22:17.634Z,98.370361
2019-05-03T01:23:27.141Z,98.370361
2019-05-03T01:24:37.668Z,98.474121
2019-05-03T01:25:48.157Z,98.577881
2019-05-03T01:26:57.677Z,98.474121
2019-05-03T01:28:07.207Z,98.474121
2019-05-03T01:29:16.717Z,98.370361
2019-05-03T01:30:27.221Z,98.162842
2019-05-03T01:31:36.734Z,98.162842
2019-05-03T01:32:47.266Z,98.059082
2019-05-03T01:33:57.779Z,98.266602
2019-05-03T01:35:07.315Z,98.370361
2019-05-03T01:36:17.812Z,98.162842
2019-05-03T01:37:28.328Z,98.162842
2019-05-03T01:38:37.846Z,98.266602
2019-05-03T01:39:47.383Z,98.266602
2019-05-03T01:40:57.888Z,98.266602
2019-05-03T01:42:07.392Z,98.266602
2019-05-03T01:43:16.966Z,98.266602
2019-05-03T01:44:27.487Z,98.370361
2019-05-03T01:45:38.027Z,98.370361
2019-05-03T01:46:47.537Z,98.474121
2019-05-03T01:47:57.064Z,98.474121
2019-05-03T01:49:06.596Z,98.370361
2019-05-03T01:50:17.093Z,98.370361
2019-05-03T01:51:27.596Z,98.370361
2019-05-03T01:52:38.134Z,98.370361
2019-05-03T01:53:47.654Z,98.370361
2019-05-03T01:54:57.164Z,98.370361
2019-05-03T01:56:07.689Z,98.474121
2019-05-03T01:57:17.219Z,98.577881
2019-05-03T01:58:26.756Z,98.577881
2019-05-03T01:59:37.248Z,98.681641
2019-05-03T02:00:47.758Z,98.577881
2019-05-03T02:01:57.261Z,98.474121
2019-05-03T02:03:06.792Z,98.681641
2019-05-03T02:04:17.315Z,98.577881
2019-05-03T02:05:26.824Z,98.681641
2019-05-03T02:06:37.354Z,98.7854
2019-05-03T02:07:48.627Z,98.883057
2019-05-03T02:08:57.407Z,98.883057
2019-05-03T02:10:06.896Z,98.986816
2019-05-03T02:11:16.398Z,98.883057
2019-05-03T02:12:26.922Z,98.883057
2019-05-03T02:13:37.438Z,98.7854
2019-05-03T02:14:47.960Z,98.7854
2019-05-03T02:15:57.469Z,98.883057
2019-05-03T02:17:06.997Z,98.7854
2019-05-03T02:18:17.511Z,98.7854
2019-05-03T02:19:27.029Z,98.681641
2019-05-03T02:20:37.543Z,98.7854
2019-05-03T02:21:47.093Z,98.7854
2019-05-03T02:22:57.613Z,98.883057
2019-05-03T02:24:08.108Z,98.986816
2019-05-03T02:25:17.624Z,99.090576
2019-05-03T02:26:27.126Z,99.194336
2019-05-03T02:27:36.659Z,99.194336
2019-05-03T02:28:47.184Z,99.090576
2019-05-03T02:29:57.710Z,99.090576
2019-05-03T02:31:08.221Z,98.986816
2019-05-03T02:32:18.739Z,99.090576
2019-05-03T02:33:28.286Z,99.090576
2019-05-03T02:34:37.891Z,99.090576
2019-05-03T02:35:48.415Z,99.194336
2019-05-03T02:36:57.915Z,99.090576
2019-05-03T02:38:08.416Z,99.090576
2019-05-03T02:39:17.918Z,98.986816
2019-05-03T02:40:28.416Z,98.883057
2019-05-03T02:41:38.914Z,98.883057
2019-05-03T02:42:49.427Z,98.7854
2019-05-03T02:43:59.957Z,98.7854
2019-05-03T02:45:10.495Z,98.883057
2019-05-03T02:46:19.996Z,98.883057
2019-05-03T02:47:30.513Z,98.7854
2019-05-03T02:48:41.043Z,98.7854
2019-05-03T02:49:50.537Z,98.7854
2019-05-03T02:51:01.067Z,98.681641
2019-05-03T02:52:11.578Z,98.681641
2019-05-03T02:53:21.092Z,98.7854
2019-05-03T02:54:30.604Z,98.681641
2019-05-03T02:55:40.092Z,98.681641
2019-05-03T02:56:50.587Z,98.736572
2019-05-03T02:58:01.097Z,98.681641
2019-05-03T02:59:10.631Z,98.577881
2019-05-03T03:00:21.130Z,98.577881
2019-05-03T03:01:30.635Z,98.474121
2019-05-03T03:02:41.171Z,98.577881
2019-05-03T03:03:50.722Z,98.577881
2019-05-03T03:05:01.254Z,98.474121
2019-05-03T03:06:10.779Z,98.474121
2019-05-03T03:07:20.290Z,98.577881
2019-05-03T03:08:33.157Z,98.681641
2019-05-03T03:09:41.303Z,98.681641
2019-05-03T03:10:50.799Z,98.7854
2019-05-03T03:12:00.309Z,98.883057
2019-05-03T03:13:10.811Z,98.986816
2019-05-03T03:14:21.359Z,98.986816
2019-05-03T03:15:30.867Z,98.986816
2019-05-03T03:16:41.401Z,98.986816
2019-05-03T03:17:50.903Z,98.883057
2019-05-03T03:19:01.400Z,98.986816
2019-05-03T03:20:11.930Z,98.986816
2019-05-03T03:21:22.439Z,98.986816
2019-05-03T03:22:31.943Z,98.883057
2019-05-03T03:23:41.473Z,98.883057
2019-05-03T03:24:51.000Z,98.883057
2019-05-03T03:26:00.521Z,98.883057
2019-05-03T03:27:11.042Z,98.7854
2019-05-03T03:28:21.547Z,98.681641
2019-05-03T03:29:31.068Z,98.7854
2019-05-03T03:30:40.563Z,98.7854
2019-05-03T03:31:51.114Z,98.883057
2019-05-03T03:33:01.681Z,98.986816
2019-05-03T03:34:12.128Z,98.883057
2019-05-03T03:35:22.706Z,98.883057
2019-05-03T03:36:49.524Z,98.883057
2019-05-03T03:37:46.158Z,98.681641
2019-05-03T03:38:55.374Z,98.577881
2019-05-03T03:40:05.748Z,98.577881
2019-05-03T03:41:12.129Z,98.474121
2019-05-03T03:42:21.684Z,98.474121
2019-05-03T03:43:31.205Z,98.474121
2019-05-03T03:44:40.709Z,98.577881
2019-05-03T03:45:50.246Z,98.577881
2019-05-03T03:47:00.776Z,98.577881
2019-05-03T03:48:10.293Z,98.681641
2019-05-03T03:49:20.808Z,98.681641
2019-05-03T03:50:31.345Z,98.681641
2019-05-03T03:51:40.853Z,98.736572
2019-05-03T03:52:50.378Z,98.883057
2019-05-03T03:54:00.901Z,98.7854
2019-05-03T03:55:11.418Z,98.7854
2019-05-03T03:56:20.933Z,98.7854
2019-05-03T03:57:30.474Z,98.7854
2019-05-03T03:58:40.966Z,98.736572
2019-05-03T03:59:51.494Z,98.681641
2019-05-03T04:01:00.999Z,98.529053
2019-05-03T04:02:11.534Z,98.632812
2019-05-03T04:03:21.049Z,98.736572
2019-05-03T04:04:30.609Z,98.736572
2019-05-03T04:05:41.090Z,98.736572
2019-05-03T04:06:51.619Z,98.840332
2019-05-03T04:08:02.177Z,98.736572
2019-05-03T04:09:11.703Z,98.840332
2019-05-03T04:10:21.213Z,98.840332
2019-05-03T04:11:30.707Z,98.840332
2019-05-03T04:12:40.254Z,98.736572
2019-05-03T04:13:50.766Z,98.840332
2019-05-03T04:15:01.282Z,98.840332
2019-05-03T04:16:10.791Z,98.840332
2019-05-03T04:17:21.306Z,98.736572
2019-05-03T04:18:30.811Z,98.736572
2019-05-03T04:19:41.309Z,98.632812
2019-05-03T04:20:50.815Z,98.632812
2019-05-03T04:22:01.333Z,98.425293
2019-05-03T04:23:10.922Z,98.327637
2019-05-03T04:24:21.386Z,98.327637
2019-05-03T04:25:30.918Z,98.425293
2019-05-03T04:26:40.442Z,98.327637
2019-05-03T04:27:50.007Z,98.327637
2019-05-03T04:29:00.509Z,98.425293
2019-05-03T04:30:10.041Z,98.425293
2019-05-03T04:31:20.567Z,98.529053
2019-05-03T04:32:31.067Z,98.529053
2019-05-03T04:33:40.598Z,98.632812
2019-05-03T04:34:50.102Z,98.736572
2019-05-03T04:36:00.621Z,98.840332
2019-05-03T04:37:10.123Z,98.944092
2019-05-03T04:38:20.655Z,98.944092
2019-05-03T04:39:31.188Z,99.047852
2019-05-03T04:40:40.721Z,99.047852
2019-05-03T04:41:50.211Z,98.944092
2019-05-03T04:43:00.732Z,98.736572
2019-05-03T04:44:11.266Z,98.840332
2019-05-03T04:45:20.765Z,98.736572
2019-05-03T04:46:30.295Z,98.736572
2019-05-03T04:47:40.811Z,98.693848
2019-05-03T04:48:51.321Z,98.590088
2019-05-03T04:50:00.832Z,98.590088
2019-05-03T04:51:10.326Z,98.590088
2019-05-03T04:52:20.837Z,98.590088
2019-05-03T04:53:31.350Z,98.590088
2019-05-03T04:54:40.855Z,98.486328
2019-05-03T04:55:50.382Z,98.486328
2019-05-03T04:57:00.909Z,98.278809
2019-05-03T04:58:11.446Z,98.278809
2019-05-03T04:59:20.967Z,98.278809
2019-05-03T05:00:30.488Z,98.175049
2019-05-03T05:01:40.989Z,98.175049
2019-05-03T05:02:51.516Z,98.175049
2019-05-03T05:04:01.033Z,98.071289
2019-05-03T05:05:10.545Z,98.175049
2019-05-03T05:06:20.062Z,98.175049
2019-05-03T05:07:30.565Z,97.973633
2019-05-03T05:08:40.080Z,97.973633
2019-05-03T05:09:50.595Z,97.973633
2019-05-03T05:11:01.105Z,97.869873
2019-05-03T05:12:11.586Z,97.973633
2019-05-03T05:13:21.119Z,97.766113
2019-05-03T05:14:30.644Z,97.558594
2019-05-03T05:15:40.149Z,97.357178
2019-05-03T05:16:50.684Z,97.357178
2019-05-03T05:18:01.183Z,97.558594
2019-05-03T05:19:10.714Z,97.662354
2019-05-03T05:20:20.214Z,97.662354
2019-05-03T05:21:29.723Z,97.454834
2019-05-03T05:22:40.240Z,97.454834
2019-05-03T05:23:50.752Z,97.412109
2019-05-03T05:25:00.261Z,97.412109
2019-05-03T05:26:09.761Z,97.515869
2019-05-03T05:27:19.282Z,97.515869
2019-05-03T05:28:29.816Z,97.412109
2019-05-03T05:29:40.381Z,97.619629
2019-05-03T05:30:49.905Z,97.515869
2019-05-03T05:31:59.447Z,97.412109
2019-05-03T05:33:09.957Z,97.003174
2019-05-03T05:34:19.473Z,96.795654
2019-05-03T05:35:29.993Z,96.691895
2019-05-03T05:36:40.507Z,97.10083
2019-05-03T05:37:50.015Z,97.058105
2019-05-03T05:38:59.549Z,97.265625
2019-05-03T05:40:10.049Z,97.058105
2019-05-03T05:41:20.585Z,97.161865
2019-05-03T05:42:30.114Z,97.058105
2019-05-03T05:43:39.654Z,96.54541
2019-05-03T05:44:50.168Z,96.337891
2019-05-03T05:46:00.710Z,96.191406
2019-05-03T05:47:10.231Z,95.782471
2019-05-03T05:48:19.746Z,95.574951
2019-05-03T05:49:29.290Z,95.782471
2019-05-03T05:50:39.797Z,95.471191
2019-05-03T05:51:50.322Z,95.574951
2019-05-03T05:52:59.847Z,95.166016
2019-05-03T05:54:10.371Z,95.062256
2019-05-03T05:55:19.866Z,95.166016
2019-05-03T05:56:30.395Z,95.373535
2019-05-03T05:57:39.932Z,95.269775
2019-05-03T05:58:49.477Z,95.471191
2019-05-03T05:59:59.996Z,95.88623
2019-05-03T06:01:09.529Z,95.373535
2019-05-03T06:02:20.035Z,95.678711
2019-05-03T06:03:30.561Z,95.983887
2019-05-03T06:04:40.134Z,95.678711
2019-05-03T06:05:50.623Z,95.678711
2019-05-03T06:07:00.153Z,95.88623
2019-05-03T06:08:09.686Z,96.032715
2019-05-03T06:09:20.201Z,95.617676
2019-05-03T06:10:30.723Z,95.41626
2019-05-03T06:11:40.240Z,95.52002
2019-05-03T06:12:49.800Z,95.721436
2019-05-03T06:13:59.350Z,95.52002
2019-05-03T06:15:09.883Z,95.617676
2019-05-03T06:16:20.392Z,95.782471
2019-05-03T06:17:29.887Z,95.721436
2019-05-03T06:18:39.426Z,95.617676
2019-05-03T06:19:50.000Z,95.721436
2019-05-03T06:20:59.490Z,95.825195
2019-05-03T06:22:10.034Z,95.721436
2019-05-03T06:23:20.571Z,96.087646
2019-05-03T06:24:30.145Z,95.983887
2019-05-03T06:25:39.681Z,96.191406
2019-05-03T06:26:50.198Z,96.087646
2019-05-03T06:27:59.759Z,96.087646
2019-05-03T06:29:10.300Z,96.191406
2019-05-03T06:30:20.837Z,95.983887
2019-05-03T06:31:30.410Z,96.136475
2019-05-03T06:32:39.927Z,96.234131
2019-05-03T06:33:52.282Z,96.136475
2019-05-03T06:34:59.986Z,96.44165
2019-05-03T06:36:09.529Z,96.54541
2019-05-03T06:37:20.055Z,96.850586
2019-05-03T06:38:30.594Z,97.161865
2019-05-03T06:39:40.133Z,97.265625
2019-05-03T06:40:50.658Z,97.467041
2019-05-03T06:42:00.169Z,97.467041
2019-05-03T06:43:12.849Z,97.674561
2019-05-03T06:44:24.618Z,97.467041
2019-05-03T06:45:31.728Z,97.265625
2019-05-03T06:46:41.271Z,97.058105
2019-05-03T06:47:50.763Z,97.467041
2019-05-03T06:49:00.980Z,97.570801
2019-05-03T06:50:10.831Z,97.674561
2019-05-03T06:51:21.404Z,97.77832
2019-05-03T06:52:30.914Z,97.729492
2019-05-03T06:53:41.731Z,97.631836
2019-05-03T06:54:50.923Z,97.528076
2019-05-03T06:56:00.453Z,96.911621
2019-05-03T06:57:10.011Z,96.868896
2019-05-03T06:58:30.297Z,96.350098
2019-05-03T06:59:30.027Z,96.044922
2019-05-03T07:00:40.600Z,95.837402
2019-05-03T07:01:50.134Z,95.837402
2019-05-03T07:03:00.700Z,95.635986
2019-05-03T07:04:10.220Z,95.837402
2019-05-03T07:05:19.742Z,96.148682
2019-05-03T07:06:37.156Z,96.252441
2019-05-03T07:07:40.840Z,95.941162
2019-05-03T07:08:51.332Z,96.148682
2019-05-03T07:10:01.981Z,96.044922
2019-05-03T07:11:12.692Z,96.453857
2019-05-03T07:12:22.225Z,96.350098
2019-05-03T07:13:32.128Z,96.252441
2019-05-03T07:14:42.503Z,95.635986
2019-05-03T07:15:52.061Z,95.635986
2019-05-03T07:17:01.605Z,95.739746
2019-05-03T07:18:11.145Z,95.635986
2019-05-03T07:19:20.681Z,95.532227
2019-05-03T07:20:30.209Z,95.635986
2019-05-03T07:21:40.722Z,95.428467
2019-05-03T07:22:50.237Z,95.428467
2019-05-03T07:24:00.778Z,95.532227
2019-05-03T07:25:10.294Z,95.532227
2019-05-03T07:26:19.832Z,95.837402
2019-05-03T07:27:30.377Z,96.148682
2019-05-03T07:28:46.817Z,96.453857
2019-05-03T07:29:50.400Z,96.966553
2019-05-03T07:31:00.933Z,97.332764
2019-05-03T07:32:10.454Z,97.479248
2019-05-03T07:33:20.989Z,97.741699
2019-05-03T07:34:30.546Z,97.583008
2019-05-03T07:35:40.081Z,97.381592
2019-05-03T07:36:49.611Z,97.277832
2019-05-03T07:38:00.163Z,96.911621
2019-05-03T07:39:10.677Z,97.015381
2019-05-03T07:40:20.208Z,97.119141
2019-05-03T07:41:30.727Z,97.320557
2019-05-03T07:42:40.263Z,96.704102
2019-05-03T07:43:49.787Z,96.600342
2019-05-03T07:45:00.292Z,96.600342
2019-05-03T07:46:09.834Z,96.704102
2019-05-03T07:47:19.377Z,96.087646
2019-05-03T07:48:29.903Z,96.337891
2019-05-03T07:49:40.407Z,96.911621
2019-05-03T07:50:49.947Z,97.015381
2019-05-03T07:51:59.457Z,96.911621
2019-05-03T07:53:09.972Z,97.119141
2019-05-03T07:54:20.518Z,97.119141
2019-05-03T07:55:30.057Z,96.966553
2019-05-03T07:56:40.569Z,96.966553
2019-05-03T07:57:50.087Z,96.044922
2019-05-03T07:59:03.906Z,96.044922
2019-05-03T08:00:11.093Z,95.837402
2019-05-03T08:01:20.623Z,95.690918
2019-05-03T08:02:31.156Z,95.794678
2019-05-03T08:03:40.702Z,95.898438
2019-05-03T08:04:50.226Z,95.587158
2019-05-03T08:05:59.768Z,95.385742
2019-05-03T08:07:19.856Z,95.587158
2019-05-03T08:08:19.761Z,96.002197
2019-05-03T08:09:30.272Z,95.587158
2019-05-03T08:10:39.815Z,94.976807
2019-05-03T08:11:50.323Z,95.281982
2019-05-03T08:12:59.855Z,94.873047
2019-05-03T08:14:09.386Z,94.464111
2019-05-03T08:15:19.922Z,94.769287
2019-05-03T08:16:29.438Z,94.726562
2019-05-03T08:17:39.962Z,95.031738
2019-05-03T08:18:49.479Z,94.885254
2019-05-03T08:20:00.001Z,94.683838
2019-05-03T08:21:10.541Z,93.408203
2019-05-03T08:22:20.055Z,93.615723
2019-05-03T08:23:30.607Z,92.645264
2019-05-03T08:24:40.087Z,91.625977
2019-05-03T08:25:50.910Z,91.070557
2019-05-03T08:27:00.168Z,90.515137
2019-05-03T08:28:09.686Z,90.820312
2019-05-03T08:29:19.673Z,90.515137
2019-05-03T08:30:29.725Z,90.411377
2019-05-03T08:31:40.283Z,90.411377
2019-05-03T08:32:50.783Z,88.775635
2019-05-03T08:34:00.317Z,88.879395
2019-05-03T08:35:09.846Z,88.470459
2019-05-03T08:36:20.387Z,89.123535
2019-05-03T08:37:29.938Z,89.73999
2019-05-03T08:38:39.497Z,88.861084
2019-05-03T08:39:50.011Z,90.130615
2019-05-03T08:41:00.556Z,89.61792
2019-05-03T08:42:10.095Z,90.06958
2019-05-03T08:43:19.628Z,90.130615
2019-05-03T08:44:30.174Z,90.026855
2019-05-03T08:45:40.704Z,89.782715
2019-05-03T08:46:50.278Z,88.140869
2019-05-03T08:48:00.813Z,88.964844
2019-05-03T08:49:10.351Z,88.201904
2019-05-03T08:50:21.507Z,87.591553
2019-05-03T08:51:30.414Z,87.487793
2019-05-03T08:52:39.927Z,88.104248
2019-05-03T08:53:50.426Z,86.669922
2019-05-03T08:55:00.920Z,87.078857
2019-05-03T08:56:10.459Z,87.487793
2019-05-03T08:57:20.980Z,88.409424
2019-05-03T08:58:30.491Z,89.18457
2019-05-03T08:59:40.011Z,88.775635
2019-05-03T09:00:49.532Z,87.652588
2019-05-03T09:02:03.425Z,87.652588
2019-05-03T09:03:10.622Z,85.198975
2019-05-03T09:04:33.065Z,86.627197
2019-05-03T09:05:30.648Z,87.652588
2019-05-03T09:06:41.198Z,87.286377
2019-05-03T09:07:50.947Z,86.773682
2019-05-03T09:09:00.251Z,87.182617
2019-05-03T09:10:12.368Z,88.061523
2019-05-03T09:11:30.245Z,88.677979
2019-05-03T09:12:30.787Z,88.018799
2019-05-03T09:13:40.342Z,87.939453
2019-05-03T09:14:49.890Z,86.425781
2019-05-03T09:15:59.439Z,84.716797
2019-05-03T09:17:09.986Z,81.451416
2019-05-03T09:18:20.476Z,79.925537
2019-05-03T09:19:30.993Z,81.005859
2019-05-03T09:20:40.494Z,80.255127
2019-05-03T09:21:50.001Z,81.68335
2019-05-03T09:22:59.551Z,79.034424
2019-05-03T09:24:10.066Z,79.376221
2019-05-03T09:25:20.631Z,80.334473
2019-05-03T09:26:30.182Z,81.494141
2019-05-03T09:27:39.685Z,81.018066
2019-05-03T09:28:49.242Z,83.508301
2019-05-03T09:29:59.754Z,83.239746
2019-05-03T09:31:10.258Z,84.649658
2019-05-03T09:32:20.807Z,86.383057
2019-05-03T09:33:30.332Z,85.60791
2019-05-03T09:34:40.843Z,86.096191
2019-05-03T09:35:51.342Z,86.340332
2019-05-03T09:37:00.876Z,87.652588
2019-05-03T09:38:10.391Z,89.434814
2019-05-03T09:39:19.907Z,91.900635
2019-05-03T09:40:29.427Z,92.352295
2019-05-03T09:41:39.944Z,91.882324
2019-05-03T09:42:50.478Z,91.778564
2019-05-03T09:44:00.038Z,91.821289
2019-05-03T09:45:09.557Z,92.437744
2019-05-03T09:46:20.089Z,92.84668
2019-05-03T09:47:30.640Z,93.566895
2019-05-03T09:48:40.161Z,93.255615
2019-05-03T09:49:50.688Z,93.829346
2019-05-03T09:51:01.179Z,93.31665
2019-05-03T09:52:10.728Z,92.456055
2019-05-03T09:53:21.248Z,93.743896
2019-05-03T09:54:30.797Z,93.951416
2019-05-03T09:55:40.311Z,92.718506
2019-05-03T09:56:55.784Z,92.822266
2019-05-03T09:58:00.389Z,92.657471
2019-05-03T09:59:10.918Z,92.553711
2019-05-03T10:00:20.414Z,92.553711
2019-05-03T10:01:29.929Z,93.786621
2019-05-03T10:02:39.489Z,94.610596
2019-05-03T10:03:49.998Z,94.464111
2019-05-03T10:04:59.535Z,93.536377
2019-05-03T10:06:09.075Z,93.847656
2019-05-03T10:07:19.619Z,93.334961
2019-05-03T10:08:30.160Z,93.127441
2019-05-03T10:09:40.671Z,91.900635
2019-05-03T10:10:50.194Z,92.205811
2019-05-03T10:11:59.734Z,92.779541
2019-05-03T10:13:14.099Z,92.572021
2019-05-03T10:14:20.869Z,90.83252
2019-05-03T10:15:30.382Z,90.582275
2019-05-03T10:16:39.934Z,90.374756
2019-05-03T10:17:49.482Z,90.582275
2019-05-03T10:19:00.045Z,91.137695
2019-05-03T10:20:09.586Z,93.084717
2019-05-03T10:21:20.107Z,93.597412
2019-05-03T10:22:30.648Z,93.292236
2019-05-03T10:23:40.162Z,92.877197
2019-05-03T10:24:50.662Z,93.188477
2019-05-03T10:26:00.177Z,92.364502
2019-05-03T10:27:09.719Z,92.059326
2019-05-03T10:28:20.260Z,91.75415
2019-05-03T10:29:29.794Z,90.582275
2019-05-03T10:30:39.336Z,90.582275
2019-05-03T10:31:49.866Z,90.74707
2019-05-03T10:32:59.404Z,89.61792
2019-05-03T10:34:09.911Z,88.592529
2019-05-03T10:35:20.419Z,88.592529
2019-05-03T10:36:29.942Z,87.982178
2019-05-03T10:37:40.495Z,88.391113
2019-05-03T10:38:50.010Z,88.452148
2019-05-03T10:40:00.516Z,87.121582
2019-05-03T10:41:11.034Z,86.199951
2019-05-03T10:42:20.554Z,86.608887
2019-05-03T10:43:30.104Z,85.888672
2019-05-03T10:44:40.615Z,82.922363
2019-05-03T10:45:50.132Z,83.435059
2019-05-03T10:47:00.652Z,85.174561
2019-05-03T10:48:10.190Z,83.740234
2019-05-03T10:49:20.719Z,83.496094
2019-05-03T10:50:30.216Z,84.216309
2019-05-03T10:51:39.738Z,84.47876
2019-05-03T10:52:50.275Z,84.47876
2019-05-03T10:54:00.805Z,84.747314
2019-05-03T10:55:10.322Z,83.624268
2019-05-03T10:56:23.546Z,82.128906
2019-05-03T10:57:31.365Z,81.103516
2019-05-03T10:58:40.912Z,82.537842
2019-05-03T10:59:50.415Z,82.745361
2019-05-03T11:01:00.943Z,82.232666
2019-05-03T11:02:10.450Z,83.013916
2019-05-03T11:03:19.965Z,81.414795
2019-05-03T11:04:29.517Z,81.82373
2019-05-03T11:05:40.017Z,81.719971
2019-05-03T11:06:50.532Z,82.165527
2019-05-03T11:08:00.065Z,83.599854
2019-05-03T11:09:09.573Z,83.972168
2019-05-03T11:10:20.094Z,82.232666
2019-05-03T11:11:30.614Z,82.843018
2019-05-03T11:12:40.130Z,80.187988
2019-05-03T11:13:49.709Z,80.79834
2019-05-03T11:14:59.240Z,81.47583
2019-05-03T11:16:08.746Z,81.951904
2019-05-03T11:17:19.278Z,79.907227
2019-05-03T11:18:29.820Z,82.116699
2019-05-03T11:19:39.338Z,80.853271
2019-05-03T11:20:49.848Z,79.321289
2019-05-03T11:21:59.376Z,78.674316
2019-05-03T11:23:09.920Z,76.428223
2019-05-03T11:24:19.445Z,75.952148
2019-05-03T11:25:29.943Z,76.873779
2019-05-03T11:26:39.464Z,76.055908
2019-05-03T11:27:49.961Z,76.501465
2019-05-03T11:29:00.683Z,76.77002
2019-05-03T11:30:10.071Z,77.55127
2019-05-03T11:31:20.586Z,77.142334
2019-05-03T11:32:30.080Z,77.209473
2019-05-03T11:33:40.603Z,77.069092
2019-05-03T11:34:50.136Z,74.89624
2019-05-03T11:36:00.650Z,73.736572
2019-05-03T11:37:10.165Z,74.346924
2019-05-03T11:38:19.666Z,72.314453
2019-05-03T11:39:30.243Z,73.535156
2019-05-03T11:40:39.747Z,73.736572
2019-05-03T11:41:50.266Z,71.704102
2019-05-03T11:42:59.780Z,73.22998
2019-05-03T11:44:09.310Z,72.009277
2019-05-03T11:45:19.817Z,73.535156
2019-05-03T11:46:29.331Z,73.535156
2019-05-03T11:47:39.851Z,73.022461
2019-05-03T11:48:50.359Z,70.074463
2019-05-03T11:50:00.860Z,70.10498
2019-05-03T11:51:10.384Z,71.630859
2019-05-03T11:52:19.908Z,71.228027
2019-05-03T11:53:30.413Z,71.496582
2019-05-03T11:54:40.922Z,71.600342
2019-05-03T11:55:50.439Z,72.314453
2019-05-03T11:56:59.958Z,72.412109
2019-05-03T11:58:10.473Z,71.295166
2019-05-03T11:59:20.015Z,70.715332
2019-05-03T12:00:30.534Z,72.241211
2019-05-03T12:01:40.033Z,71.124268
2019-05-03T12:02:49.563Z,71.429443
2019-05-03T12:04:00.108Z,71.533203
2019-05-03T12:05:09.621Z,70.611572
2019-05-03T12:06:20.178Z,70.916748
2019-05-03T12:07:38.816Z,71.325684
2019-05-03T12:08:40.164Z,70.916748
2019-05-03T12:09:49.693Z,70.239258
2019-05-03T12:11:01.502Z,71.258545
2019-05-03T12:12:09.695Z,72.515869
2019-05-03T12:13:20.236Z,72.924805
2019-05-03T12:14:29.783Z,73.669434
2019-05-03T12:15:39.303Z,73.22998
2019-05-03T12:18:00.740Z,72.314453
2019-05-03T12:19:16.697Z,73.193359
2019-05-03T12:20:22.527Z,70.88623
2019-05-03T12:21:32.574Z,71.191406
2019-05-03T12:22:43.024Z,72.515869
2019-05-03T12:23:53.991Z,72.753906
2019-05-03T12:25:03.405Z,72.857666
2019-05-03T12:26:13.805Z,73.602295
2019-05-03T12:27:24.392Z,73.706055
2019-05-03T12:28:35.071Z,75.579834
2019-05-03T12:29:44.581Z,75.170898
2019-05-03T12:30:51.926Z,74.182129
2019-05-03T12:32:01.439Z,75.408936
2019-05-03T12:33:10.956Z,75.958252
2019-05-03T12:34:20.473Z,77.081299
2019-05-03T12:35:31.044Z,77.79541
2019-05-03T12:36:40.561Z,78.649902
2019-05-03T12:37:50.075Z,79.467773
2019-05-03T12:39:00.608Z,80.01709
2019-05-03T12:40:10.125Z,81.182861
2019-05-03T12:41:19.669Z,82.409668
2019-05-03T12:42:30.182Z,83.227539
2019-05-03T12:43:40.697Z,83.740234
2019-05-03T12:44:50.237Z,84.088135
2019-05-03T12:45:59.763Z,84.49707
2019-05-03T12:47:10.295Z,84.802246
2019-05-03T12:48:19.833Z,85.418701
2019-05-03T12:49:29.354Z,86.444092
2019-05-03T12:50:40.156Z,86.383057
2019-05-03T12:51:50.419Z,85.461426
2019-05-03T12:52:59.935Z,86.279297
2019-05-03T12:54:09.452Z,85.662842
2019-05-03T12:55:19.984Z,86.279297
2019-05-03T12:56:32.514Z,87.304688
2019-05-03T12:57:40.047Z,86.688232
2019-05-03T12:58:50.559Z,86.071777
2019-05-03T13:00:00.102Z,85.974121
2019-05-03T13:01:09.625Z,85.522461
2019-05-03T13:02:20.128Z,85.522461
2019-05-03T13:03:29.656Z,85.522461
2019-05-03T13:04:39.184Z,85.479736
2019-05-03T13:05:49.723Z,84.7229
2019-05-03T13:07:00.213Z,83.807373
2019-05-03T13:08:10.730Z,83.660889
2019-05-03T13:09:20.230Z,82.574463
2019-05-03T13:10:29.757Z,82.983398
2019-05-03T13:11:51.727Z,83.905029
2019-05-03T13:12:53.090Z,83.599854
2019-05-03T13:14:00.293Z,84.173584
2019-05-03T13:15:09.813Z,83.764648
2019-05-03T13:16:19.338Z,83.355713
2019-05-03T13:17:29.837Z,82.745361
2019-05-03T13:18:39.350Z,81.555176
2019-05-03T13:19:49.857Z,82.574463
2019-05-03T13:20:59.396Z,82.678223
2019-05-03T13:22:09.915Z,82.513428